sensor_id;sensor_type;location;lat;lon;timestamp;pressure;altitude;pressure_sealevel;temperature;humidity
60089;BME280;45961;53.574;55.878;2023-04-07T00:00:12;99831.53;;;6.11;69.20
60089;BME280;45961;53.574;55.878;2023-04-07T00:01:13;99829.06;;;6.15;69.04
60089;BME280;45961;53.574;55.878;2023-04-07T00:02:14;99832.22;;;6.02;69.48
60089;BME280;45961;53.574;55.878;2023-04-07T00:03:16;99833.22;;;6.10;69.57
60089;BME280;45961;53.574;55.878;2023-04-07T00:04:17;99833.22;;;6.09;69.38
60089;BME280;45961;53.574;55.878;2023-04-07T00:05:18;99823.94;;;6.15;69.18
60089;BME280;45961;53.574;55.878;2023-04-07T00:06:19;99829.06;;;6.15;69.44
60089;BME280;45961;53.574;55.878;2023-04-07T00:07:20;99833.72;;;5.92;69.90
60089;BME280;45961;53.574;55.878;2023-04-07T00:08:21;99829.44;;;5.93;70.20
60089;BME280;45961;53.574;55.878;2023-04-07T00:09:22;99834.72;;;5.99;70.20
60089;BME280;45961;53.574;55.878;2023-04-07T00:10:24;99846.06;;;6.10;69.94
60089;BME280;45961;53.574;55.878;2023-04-07T00:11:25;99839.31;;;6.14;69.62
60089;BME280;45961;53.574;55.878;2023-04-07T00:12:26;99833.84;;;5.99;70.29
60089;BME280;45961;53.574;55.878;2023-04-07T00:13:27;99837.81;;;5.86;70.77
60089;BME280;45961;53.574;55.878;2023-04-07T00:14:28;99840.38;;;5.84;71.31
60089;BME280;45961;53.574;55.878;2023-04-07T00:15:29;99835.31;;;5.87;71.04
60089;BME280;45961;53.574;55.878;2023-04-07T00:16:30;99836.41;;;5.99;71.08
60089;BME280;45961;53.574;55.878;2023-04-07T00:17:31;99834.47;;;5.88;71.03
60089;BME280;45961;53.574;55.878;2023-04-07T00:18:32;99842.16;;;5.88;71.42
60089;BME280;45961;53.574;55.878;2023-04-07T00:19:33;99840.94;;;5.71;71.76
60089;BME280;45961;53.574;55.878;2023-04-07T00:20:35;99844.47;;;5.76;71.91
60089;BME280;45961;53.574;55.878;2023-04-07T00:21:36;99837.16;;;5.55;72.14
60089;BME280;45961;53.574;55.878;2023-04-07T00:22:37;99827.09;;;5.66;72.08
60089;BME280;45961;53.574;55.878;2023-04-07T00:23:38;99844.38;;;5.72;72.19
60089;BME280;45961;53.574;55.878;2023-04-07T00:24:39;99841.25;;;5.49;72.83
60089;BME280;45961;53.574;55.878;2023-04-07T00:25:40;99849.91;;;5.52;73.14
60089;BME280;45961;53.574;55.878;2023-04-07T00:26:41;99855.69;;;5.43;73.54
60089;BME280;45961;53.574;55.878;2023-04-07T00:27:42;99848.00;;;5.43;73.85
60089;BME280;45961;53.574;55.878;2023-04-07T00:28:43;99849.81;;;5.48;74.02
60089;BME280;45961;53.574;55.878;2023-04-07T00:29:44;99852.72;;;5.63;73.51
60089;BME280;45961;53.574;55.878;2023-04-07T00:30:46;99856.00;;;5.57;73.69
60089;BME280;45961;53.574;55.878;2023-04-07T00:31:47;99855.81;;;5.48;74.07
60089;BME280;45961;53.574;55.878;2023-04-07T00:32:48;99854.00;;;5.44;74.21
60089;BME280;45961;53.574;55.878;2023-04-07T00:33:51;99854.19;;;5.53;74.07
60089;BME280;45961;53.574;55.878;2023-04-07T00:34:52;99856.78;;;5.55;74.28
60089;BME280;45961;53.574;55.878;2023-04-07T00:35:53;99848.38;;;5.60;73.87
60089;BME280;45961;53.574;55.878;2023-04-07T00:36:54;99849.91;;;5.52;74.19
60089;BME280;45961;53.574;55.878;2023-04-07T00:37:55;99852.75;;;5.64;74.02
60089;BME280;45961;53.574;55.878;2023-04-07T00:38:56;99857.13;;;5.68;74.03
60089;BME280;45961;53.574;55.878;2023-04-07T00:39:57;99857.09;;;5.67;73.61
60089;BME280;45961;53.574;55.878;2023-04-07T00:40:59;99858.69;;;5.62;74.20
60089;BME280;45961;53.574;55.878;2023-04-07T00:42:00;99860.47;;;5.66;74.31
60089;BME280;45961;53.574;55.878;2023-04-07T00:43:03;99851.06;;;5.65;74.22
60089;BME280;45961;53.574;55.878;2023-04-07T00:44:04;99847.63;;;5.64;74.17
60089;BME280;45961;53.574;55.878;2023-04-07T00:45:05;99854.75;;;5.78;73.89
60089;BME280;45961;53.574;55.878;2023-04-07T00:46:06;99860.16;;;5.88;73.57
60089;BME280;45961;53.574;55.878;2023-04-07T00:47:08;99859.50;;;5.97;73.04
60089;BME280;45961;53.574;55.878;2023-04-07T00:48:10;99858.72;;;6.00;72.91
60089;BME280;45961;53.574;55.878;2023-04-07T00:49:11;99863.00;;;6.01;72.82
60089;BME280;45961;53.574;55.878;2023-04-07T00:50:12;99871.66;;;6.04;72.71
60089;BME280;45961;53.574;55.878;2023-04-07T00:51:14;99869.94;;;6.03;72.47
60089;BME280;45961;53.574;55.878;2023-04-07T00:52:16;99869.03;;;6.03;72.56
60089;BME280;45961;53.574;55.878;2023-04-07T00:53:18;99869.84;;;6.00;72.78
60089;BME280;45961;53.574;55.878;2023-04-07T00:54:21;99879.47;;;6.09;72.68
60089;BME280;45961;53.574;55.878;2023-04-07T00:55:23;99868.41;;;6.13;72.61
60089;BME280;45961;53.574;55.878;2023-04-07T00:56:24;99860.53;;;6.04;72.59
60089;BME280;45961;53.574;55.878;2023-04-07T00:57:25;99874.13;;;6.00;72.95
60089;BME280;45961;53.574;55.878;2023-04-07T00:58:27;99875.84;;;6.01;73.11
60089;BME280;45961;53.574;55.878;2023-04-07T00:59:28;99848.34;;;5.95;73.12
60089;BME280;45961;53.574;55.878;2023-04-07T01:00:34;99874.31;;;6.09;72.72
60089;BME280;45961;53.574;55.878;2023-04-07T01:01:44;99876.91;;;6.10;73.00
60089;BME280;45961;53.574;55.878;2023-04-07T01:02:58;99869.94;;;6.03;73.04
60089;BME280;45961;53.574;55.878;2023-04-07T01:04:07;99883.00;;;6.14;73.10
60089;BME280;45961;53.574;55.878;2023-04-07T01:05:44;99880.25;;;6.06;73.36
60089;BME280;45961;53.574;55.878;2023-04-07T01:06:49;99880.16;;;6.02;73.44
60089;BME280;45961;53.574;55.878;2023-04-07T01:08:02;99880.63;;;5.87;74.14
60089;BME280;45961;53.574;55.878;2023-04-07T01:09:22;99887.63;;;5.91;75.04
60089;BME280;45961;53.574;55.878;2023-04-07T01:12:11;99897.47;;;6.10;74.59
60089;BME280;45961;53.574;55.878;2023-04-07T01:13:27;99885.63;;;6.15;74.13
60089;BME280;45961;53.574;55.878;2023-04-07T01:14:44;99892.47;;;6.16;73.85
60089;BME280;45961;53.574;55.878;2023-04-07T01:16:14;99895.94;;;6.18;74.00
60089;BME280;45961;53.574;55.878;2023-04-07T01:17:24;99906.81;;;6.07;74.84
60089;BME280;45961;53.574;55.878;2023-04-07T01:18:31;99896.75;;;6.16;74.79
60089;BME280;45961;53.574;55.878;2023-04-07T01:19:41;99899.34;;;6.17;74.62
60089;BME280;45961;53.574;55.878;2023-04-07T01:20:47;99896.75;;;6.16;74.70
60089;BME280;45961;53.574;55.878;2023-04-07T01:21:51;99909.63;;;6.17;74.83
60089;BME280;45961;53.574;55.878;2023-04-07T01:22:56;99896.75;;;6.16;74.53
60089;BME280;45961;53.574;55.878;2023-04-07T01:24:32;99907.25;;;6.27;74.72
60089;BME280;45961;53.574;55.878;2023-04-07T01:27:12;99909.19;;;6.38;74.40
60089;BME280;45961;53.574;55.878;2023-04-07T01:29:33;99899.75;;;6.36;74.45
60089;BME280;45961;53.574;55.878;2023-04-07T01:30:40;99912.94;;;6.53;73.85
60089;BME280;45961;53.574;55.878;2023-04-07T01:31:42;99915.59;;;6.57;73.65
60089;BME280;45961;53.574;55.878;2023-04-07T01:32:46;99921.59;;;6.58;73.33
60089;BME280;45961;53.574;55.878;2023-04-07T01:33:51;99920.84;;;6.62;73.25
60089;BME280;45961;53.574;55.878;2023-04-07T01:34:54;99916.56;;;6.62;73.36
60089;BME280;45961;53.574;55.878;2023-04-07T01:35:58;99922.59;;;6.64;73.16
60089;BME280;45961;53.574;55.878;2023-04-07T01:37:03;99925.13;;;6.63;73.34
60089;BME280;45961;53.574;55.878;2023-04-07T01:38:05;99923.50;;;6.66;73.29
60089;BME280;45961;53.574;55.878;2023-04-07T01:39:07;99923.47;;;6.65;73.58
60089;BME280;45961;53.574;55.878;2023-04-07T01:40:10;99925.19;;;6.64;73.76
60089;BME280;45961;53.574;55.878;2023-04-07T01:41:13;99921.75;;;6.64;73.99
60089;BME280;45961;53.574;55.878;2023-04-07T01:42:15;99925.25;;;6.67;74.44
60089;BME280;45961;53.574;55.878;2023-04-07T01:43:17;99931.34;;;6.73;74.05
60089;BME280;45961;53.574;55.878;2023-04-07T01:44:19;99928.78;;;6.73;74.51
60089;BME280;45961;53.574;55.878;2023-04-07T01:45:21;99912.38;;;6.67;74.59
60089;BME280;45961;53.574;55.878;2023-04-07T01:46:22;99933.88;;;6.71;74.87
60089;BME280;45961;53.574;55.878;2023-04-07T01:47:24;99933.94;;;6.74;75.06
60089;BME280;45961;53.574;55.878;2023-04-07T01:48:30;99933.06;;;6.74;75.06
60089;BME280;45961;53.574;55.878;2023-04-07T01:49:32;99926.19;;;6.73;75.19
60089;BME280;45961;53.574;55.878;2023-04-07T01:50:36;99930.50;;;6.75;75.19
60089;BME280;45961;53.574;55.878;2023-04-07T01:51:39;99935.78;;;6.80;75.14
60089;BME280;45961;53.574;55.878;2023-04-07T01:52:41;99931.41;;;6.76;75.20
60089;BME280;45961;53.574;55.878;2023-04-07T01:53:44;99939.22;;;6.82;75.15
60089;BME280;45961;53.574;55.878;2023-04-07T01:54:46;99945.44;;;6.91;74.98
60089;BME280;45961;53.574;55.878;2023-04-07T01:55:48;99936.78;;;6.88;74.98
60089;BME280;45961;53.574;55.878;2023-04-07T01:56:49;99944.22;;;6.74;75.34
60089;BME280;45961;53.574;55.878;2023-04-07T01:57:52;99943.38;;;6.75;75.78
60089;BME280;45961;53.574;55.878;2023-04-07T01:58:53;99945.94;;;6.75;76.10
60089;BME280;45961;53.574;55.878;2023-04-07T01:59:57;99953.88;;;6.84;75.59
60089;BME280;45961;53.574;55.878;2023-04-07T02:01:00;99950.38;;;6.82;75.43
60089;BME280;45961;53.574;55.878;2023-04-07T02:02:01;99958.03;;;6.78;75.85
60089;BME280;45961;53.574;55.878;2023-04-07T02:03:13;99949.47;;;6.79;75.78
60089;BME280;45961;53.574;55.878;2023-04-07T02:04:33;99956.41;;;6.83;75.83
60089;BME280;45961;53.574;55.878;2023-04-07T02:05:38;99971.53;;;6.67;76.19
60089;BME280;45961;53.574;55.878;2023-04-07T02:06:46;99952.47;;;6.58;76.69
60089;BME280;45961;53.574;55.878;2023-04-07T02:07:58;99956.91;;;6.65;76.50
60089;BME280;45961;53.574;55.878;2023-04-07T02:09:05;99963.19;;;6.79;76.54
60089;BME280;45961;53.574;55.878;2023-04-07T02:10:11;99967.47;;;6.79;76.34
60089;BME280;45961;53.574;55.878;2023-04-07T02:11:17;99977.03;;;6.84;76.22
60089;BME280;45961;53.574;55.878;2023-04-07T02:12:21;99973.53;;;6.81;76.43
60089;BME280;45961;53.574;55.878;2023-04-07T02:13:36;99975.78;;;6.67;76.70
60089;BME280;45961;53.574;55.878;2023-04-07T02:14:37;99976.81;;;6.75;76.85
60089;BME280;45961;53.574;55.878;2023-04-07T02:15:43;99977.75;;;6.79;76.61
60089;BME280;45961;53.574;55.878;2023-04-07T02:16:48;99974.13;;;6.69;76.63
60089;BME280;45961;53.574;55.878;2023-04-07T02:17:51;99981.84;;;6.67;76.97
60089;BME280;45961;53.574;55.878;2023-04-07T02:18:53;99985.53;;;6.82;76.84
60089;BME280;45961;53.574;55.878;2023-04-07T02:19:55;99986.56;;;6.90;76.40
60089;BME280;45961;53.574;55.878;2023-04-07T02:20:58;99986.31;;;6.78;76.59
60089;BME280;45961;53.574;55.878;2023-04-07T02:22:04;99987.00;;;6.69;76.69
60089;BME280;45961;53.574;55.878;2023-04-07T02:23:09;99980.25;;;6.74;76.84
60089;BME280;45961;53.574;55.878;2023-04-07T02:24:10;99991.44;;;6.76;76.93
60089;BME280;45961;53.574;55.878;2023-04-07T02:25:29;99997.28;;;6.69;77.02
60089;BME280;45961;53.574;55.878;2023-04-07T02:26:34;99990.69;;;6.82;76.89
60089;BME280;45961;53.574;55.878;2023-04-07T02:27:35;99999.34;;;6.85;76.57
60089;BME280;45961;53.574;55.878;2023-04-07T02:28:36;99996.59;;;6.76;76.81
60089;BME280;45961;53.574;55.878;2023-04-07T02:29:37;99987.00;;;6.69;77.20
60089;BME280;45961;53.574;55.878;2023-04-07T02:30:38;100009.47;;;6.78;76.94
60089;BME280;45961;53.574;55.878;2023-04-07T02:31:39;100006.22;;;6.86;76.78
60089;BME280;45961;53.574;55.878;2023-04-07T02:32:40;100010.47;;;6.84;76.48
60089;BME280;45961;53.574;55.878;2023-04-07T02:33:41;100005.41;;;6.87;76.60
60089;BME280;45961;53.574;55.878;2023-04-07T02:34:42;100009.69;;;6.88;76.59
60089;BME280;45961;53.574;55.878;2023-04-07T02:35:43;100008.78;;;6.86;76.49
60089;BME280;45961;53.574;55.878;2023-04-07T02:36:44;100016.34;;;6.79;76.73
60089;BME280;45961;53.574;55.878;2023-04-07T02:37:45;100017.94;;;6.72;76.73
60089;BME280;45961;53.574;55.878;2023-04-07T02:38:47;100017.00;;;6.70;77.13
60089;BME280;45961;53.574;55.878;2023-04-07T02:39:47;100021.00;;;6.56;77.62
60089;BME280;45961;53.574;55.878;2023-04-07T02:40:48;100021.38;;;6.74;77.45
60089;BME280;45961;53.574;55.878;2023-04-07T02:41:50;100018.81;;;6.74;77.42
60089;BME280;45961;53.574;55.878;2023-04-07T02:42:50;100026.69;;;6.80;77.25
60089;BME280;45961;53.574;55.878;2023-04-07T02:43:51;100034.41;;;6.80;77.54
60089;BME280;45961;53.574;55.878;2023-04-07T02:44:52;100030.28;;;6.88;77.21
60089;BME280;45961;53.574;55.878;2023-04-07T02:45:53;100032.78;;;6.85;77.39
60089;BME280;45961;53.574;55.878;2023-04-07T02:46:55;100037.13;;;6.88;77.31
60089;BME280;45961;53.574;55.878;2023-04-07T02:47:57;100034.41;;;6.82;77.51
60089;BME280;45961;53.574;55.878;2023-04-07T02:48:58;100034.59;;;6.89;77.57
60089;BME280;45961;53.574;55.878;2023-04-07T02:49:59;100045.50;;;6.79;77.83
60089;BME280;45961;53.574;55.878;2023-04-07T02:51:00;100038.56;;;6.75;78.05
60089;BME280;45961;53.574;55.878;2023-04-07T02:52:01;100040.25;;;6.75;78.21
60089;BME280;45961;53.574;55.878;2023-04-07T02:53:02;100046.44;;;6.83;78.30
60089;BME280;45961;53.574;55.878;2023-04-07T02:54:04;100040.25;;;6.73;78.22
60089;BME280;45961;53.574;55.878;2023-04-07T02:55:06;100056.63;;;6.77;78.27
60089;BME280;45961;53.574;55.878;2023-04-07T02:56:07;100059.81;;;6.66;78.64
60089;BME280;45961;53.574;55.878;2023-04-07T02:57:08;100055.53;;;6.67;78.83
60089;BME280;45961;53.574;55.878;2023-04-07T02:58:10;100065.59;;;6.56;79.12
60089;BME280;45961;53.574;55.878;2023-04-07T02:59:15;100061.34;;;6.58;79.51
60089;BME280;45961;53.574;55.878;2023-04-07T03:00:18;100055.53;;;6.67;79.54
60089;BME280;45961;53.574;55.878;2023-04-07T03:01:31;100060.47;;;6.58;79.59
60089;BME280;45961;53.574;55.878;2023-04-07T03:02:34;100067.50;;;6.65;80.01
60089;BME280;45961;53.574;55.878;2023-04-07T03:03:35;100070.91;;;6.64;79.95
60089;BME280;45961;53.574;55.878;2023-04-07T03:04:47;100070.97;;;6.67;79.91
60089;BME280;45961;53.574;55.878;2023-04-07T03:05:48;100076.88;;;6.63;79.82
60089;BME280;45961;53.574;55.878;2023-04-07T03:06:49;100079.94;;;6.47;80.05
60089;BME280;45961;53.574;55.878;2023-04-07T03:07:50;100089.59;;;6.55;80.16
60089;BME280;45961;53.574;55.878;2023-04-07T03:08:51;100092.69;;;6.42;80.70
60089;BME280;45961;53.574;55.878;2023-04-07T03:09:52;100094.59;;;6.51;80.63
60089;BME280;45961;53.574;55.878;2023-04-07T03:10:53;100097.97;;;6.48;80.44
60089;BME280;45961;53.574;55.878;2023-04-07T03:12:00;100091.91;;;6.46;80.55
60089;BME280;45961;53.574;55.878;2023-04-07T03:13:06;100080.41;;;6.30;80.97
60089;BME280;45961;53.574;55.878;2023-04-07T03:14:08;100095.53;;;6.18;81.30
60089;BME280;45961;53.574;55.878;2023-04-07T03:15:16;100110.34;;;6.28;81.81
60089;BME280;45961;53.574;55.878;2023-04-07T03:16:20;100098.97;;;6.18;82.05
60089;BME280;45961;53.574;55.878;2023-04-07T03:17:36;100107.47;;;6.16;82.38
60089;BME280;45961;53.574;55.878;2023-04-07T03:18:37;100104.53;;;6.02;82.87
60089;BME280;45961;53.574;55.878;2023-04-07T03:19:39;100106.13;;;5.97;83.40
60089;BME280;45961;53.574;55.878;2023-04-07T03:20:43;100110.53;;;6.03;83.62
60089;BME280;45961;53.574;55.878;2023-04-07T03:21:46;100112.25;;;6.02;83.91
60089;BME280;45961;53.574;55.878;2023-04-07T03:22:47;100123.25;;;5.97;83.96
60089;BME280;45961;53.574;55.878;2023-04-07T03:24:00;100125.06;;;6.01;84.09
60089;BME280;45961;53.574;55.878;2023-04-07T03:25:01;100126.34;;;5.85;84.51
60089;BME280;45961;53.574;55.878;2023-04-07T03:26:03;100132.69;;;5.98;84.56
60089;BME280;45961;53.574;55.878;2023-04-07T03:27:08;100135.63;;;5.80;84.70
60089;BME280;45961;53.574;55.878;2023-04-07T03:28:17;100124.97;;;5.66;84.85
60089;BME280;45961;53.574;55.878;2023-04-07T03:29:18;100140.50;;;5.70;84.99
60089;BME280;45961;53.574;55.878;2023-04-07T03:30:19;100137.03;;;5.68;85.28
60089;BME280;45961;53.574;55.878;2023-04-07T03:31:21;100139.06;;;5.80;85.25
60089;BME280;45961;53.574;55.878;2023-04-07T03:32:25;100150.19;;;5.81;85.05
60089;BME280;45961;53.574;55.878;2023-04-07T03:33:26;100141.41;;;5.73;85.43
60089;BME280;45961;53.574;55.878;2023-04-07T03:34:28;100150.63;;;5.66;85.63
60089;BME280;45961;53.574;55.878;2023-04-07T03:35:32;100142.53;;;5.82;85.47
60089;BME280;45961;53.574;55.878;2023-04-07T03:36:33;100150.81;;;5.72;85.43
60089;BME280;45961;53.574;55.878;2023-04-07T03:37:37;100155.66;;;5.61;85.05
60089;BME280;45961;53.574;55.878;2023-04-07T03:38:40;100157.44;;;5.64;85.55
60089;BME280;45961;53.574;55.878;2023-04-07T03:39:41;100160.16;;;5.70;85.43
60089;BME280;45961;53.574;55.878;2023-04-07T03:40:56;100167.66;;;5.62;85.64
60089;BME280;45961;53.574;55.878;2023-04-07T03:41:57;100165.19;;;5.65;85.67
60089;BME280;45961;53.574;55.878;2023-04-07T03:43:01;100163.47;;;5.66;85.98
60089;BME280;45961;53.574;55.878;2023-04-07T03:44:03;100168.41;;;5.58;86.16
60089;BME280;45961;53.574;55.878;2023-04-07T03:45:06;100177.00;;;5.59;86.33
60089;BME280;45961;53.574;55.878;2023-04-07T03:46:09;100174.34;;;5.56;86.86
60089;BME280;45961;53.574;55.878;2023-04-07T03:47:10;100181.09;;;5.52;86.80
60089;BME280;45961;53.574;55.878;2023-04-07T03:48:12;100182.47;;;5.41;86.77
60089;BME280;45961;53.574;55.878;2023-04-07T03:49:22;100184.88;;;5.35;86.65
60089;BME280;45961;53.574;55.878;2023-04-07T03:50:24;100194.44;;;5.40;86.55
60089;BME280;45961;53.574;55.878;2023-04-07T03:51:43;100197.59;;;5.32;86.18
60089;BME280;45961;53.574;55.878;2023-04-07T03:52:49;100204.34;;;5.28;86.41
60089;BME280;45961;53.574;55.878;2023-04-07T03:53:58;100194.94;;;5.29;86.76
60089;BME280;45961;53.574;55.878;2023-04-07T03:55:22;100205.41;;;5.35;86.87
60089;BME280;45961;53.574;55.878;2023-04-07T03:56:25;100211.78;;;5.20;86.80
60089;BME280;45961;53.574;55.878;2023-04-07T03:57:26;100208.22;;;5.15;86.91
60089;BME280;45961;53.574;55.878;2023-04-07T03:58:27;100209.09;;;5.16;87.15
60089;BME280;45961;53.574;55.878;2023-04-07T03:59:28;100211.06;;;5.25;87.42
60089;BME280;45961;53.574;55.878;2023-04-07T04:00:36;100210.81;;;5.17;87.41
60089;BME280;45961;53.574;55.878;2023-04-07T04:01:46;100215.22;;;5.21;87.61
60089;BME280;45961;53.574;55.878;2023-04-07T04:02:49;100218.00;;;5.00;87.67
60089;BME280;45961;53.574;55.878;2023-04-07T04:03:53;100224.00;;;5.01;87.69
60089;BME280;45961;53.574;55.878;2023-04-07T04:05:00;100216.06;;;4.93;87.92
60089;BME280;45961;53.574;55.878;2023-04-07T04:06:01;100227.50;;;5.03;88.18
60089;BME280;45961;53.574;55.878;2023-04-07T04:07:05;100218.19;;;5.06;88.43
60089;BME280;45961;53.574;55.878;2023-04-07T04:08:19;100223.50;;;5.11;88.31
60089;BME280;45961;53.574;55.878;2023-04-07T04:09:21;100231.81;;;5.04;88.27
60089;BME280;45961;53.574;55.878;2023-04-07T04:10:23;100235.75;;;4.94;88.38
60089;BME280;45961;53.574;55.878;2023-04-07T04:11:27;100232.66;;;4.77;88.23
60089;BME280;45961;53.574;55.878;2023-04-07T04:12:32;100231.09;;;4.82;88.40
60089;BME280;45961;53.574;55.878;2023-04-07T04:13:39;100202.75;;;4.51;88.14
60089;BME280;45961;53.574;55.878;2023-04-07T04:14:40;100238.50;;;4.73;88.13
60089;BME280;45961;53.574;55.878;2023-04-07T04:15:43;100238.16;;;4.88;88.39
60089;BME280;45961;53.574;55.878;2023-04-07T04:16:48;100249.03;;;4.81;88.18
60089;BME280;45961;53.574;55.878;2023-04-07T04:17:59;100254.03;;;4.78;88.27
60089;BME280;45961;53.574;55.878;2023-04-07T04:19:01;100254.91;;;4.78;88.16
60089;BME280;45961;53.574;55.878;2023-04-07T04:20:05;100261.31;;;4.65;87.82
60089;BME280;45961;53.574;55.878;2023-04-07T04:21:17;100259.44;;;4.60;87.65
60089;BME280;45961;53.574;55.878;2023-04-07T04:22:21;100256.78;;;4.57;87.10
60089;BME280;45961;53.574;55.878;2023-04-07T04:23:26;100262.00;;;4.60;87.01
60089;BME280;45961;53.574;55.878;2023-04-07T04:24:29;100261.28;;;4.38;86.81
60089;BME280;45961;53.574;55.878;2023-04-07T04:25:34;100259.84;;;4.47;86.85
60089;BME280;45961;53.574;55.878;2023-04-07T04:26:40;100272.44;;;4.40;86.78
60089;BME280;45961;53.574;55.878;2023-04-07T04:27:45;100266.41;;;4.38;86.57
60089;BME280;45961;53.574;55.878;2023-04-07T04:28:53;100270.03;;;4.45;86.66
60089;BME280;45961;53.574;55.878;2023-04-07T04:29:56;100275.94;;;4.42;86.43
60089;BME280;45961;53.574;55.878;2023-04-07T04:31:07;100278.31;;;4.38;86.45
60089;BME280;45961;53.574;55.878;2023-04-07T04:32:13;100268.56;;;4.26;86.32
60089;BME280;45961;53.574;55.878;2023-04-07T04:33:17;100270.31;;;4.29;86.06
60089;BME280;45961;53.574;55.878;2023-04-07T04:34:29;100283.84;;;4.49;86.13
60089;BME280;45961;53.574;55.878;2023-04-07T04:35:31;100288.50;;;4.60;85.94
60089;BME280;45961;53.574;55.878;2023-04-07T04:36:41;100279.13;;;4.35;85.47
60089;BME280;45961;53.574;55.878;2023-04-07T04:37:42;100284.69;;;4.49;85.39
60089;BME280;45961;53.574;55.878;2023-04-07T04:38:44;100288.22;;;4.51;85.40
60089;BME280;45961;53.574;55.878;2023-04-07T04:39:54;100284.25;;;4.61;84.97
60089;BME280;45961;53.574;55.878;2023-04-07T04:40:56;100294.78;;;4.68;84.84
60089;BME280;45961;53.574;55.878;2023-04-07T04:42:04;100297.03;;;4.59;84.49
60089;BME280;45961;53.574;55.878;2023-04-07T04:43:09;100305.44;;;4.55;84.52
60089;BME280;45961;53.574;55.878;2023-04-07T04:44:11;100303.94;;;4.38;84.41
60089;BME280;45961;53.574;55.878;2023-04-07T04:45:15;100297.50;;;4.24;84.20
60089;BME280;45961;53.574;55.878;2023-04-07T04:46:20;100300.31;;;4.31;84.43
60089;BME280;45961;53.574;55.878;2023-04-07T04:47:22;100303.19;;;4.40;84.45
60089;BME280;45961;53.574;55.878;2023-04-07T04:48:23;100297.81;;;4.33;84.70
60089;BME280;45961;53.574;55.878;2023-04-07T04:49:24;100298.78;;;4.36;84.46
60089;BME280;45961;53.574;55.878;2023-04-07T04:50:26;100297.38;;;4.44;84.38
60089;BME280;45961;53.574;55.878;2023-04-07T04:51:28;100312.84;;;4.24;84.30
60089;BME280;45961;53.574;55.878;2023-04-07T04:52:35;100318.19;;;4.30;84.52
60089;BME280;45961;53.574;55.878;2023-04-07T04:53:38;100311.16;;;4.48;84.37
60089;BME280;45961;53.574;55.878;2023-04-07T04:54:40;100313.56;;;4.43;84.09
60089;BME280;45961;53.574;55.878;2023-04-07T04:55:42;100325.44;;;4.41;83.80
60089;BME280;45961;53.574;55.878;2023-04-07T04:56:50;100322.59;;;4.34;83.84
60089;BME280;45961;53.574;55.878;2023-04-07T04:57:51;100326.69;;;4.29;83.61
60089;BME280;45961;53.574;55.878;2023-04-07T04:59:00;100319.88;;;4.29;83.95
60089;BME280;45961;53.574;55.878;2023-04-07T05:00:17;100318.19;;;4.30;83.93
60089;BME280;45961;53.574;55.878;2023-04-07T05:01:21;100326.94;;;4.35;83.72
60089;BME280;45961;53.574;55.878;2023-04-07T05:02:28;100335.94;;;4.48;83.50
60089;BME280;45961;53.574;55.878;2023-04-07T05:03:29;100338.41;;;4.46;83.46
60089;BME280;45961;53.574;55.878;2023-04-07T05:04:33;100346.31;;;4.28;83.50
60089;BME280;45961;53.574;55.878;2023-04-07T05:05:46;100341.97;;;4.50;83.53
60089;BME280;45961;53.574;55.878;2023-04-07T05:06:48;100350.34;;;4.45;83.23
60089;BME280;45961;53.574;55.878;2023-04-07T05:07:52;100346.56;;;4.34;83.42
60089;BME280;45961;53.574;55.878;2023-04-07T05:08:54;100331.41;;;4.40;83.77
60089;BME280;45961;53.574;55.878;2023-04-07T05:09:59;100342.63;;;4.44;83.67
60089;BME280;45961;53.574;55.878;2023-04-07T05:11:01;100361.56;;;4.48;83.23
60089;BME280;45961;53.574;55.878;2023-04-07T05:12:06;100352.66;;;4.62;83.06
60089;BME280;45961;53.574;55.878;2023-04-07T05:13:12;100361.38;;;4.67;82.88
60089;BME280;45961;53.574;55.878;2023-04-07T05:14:14;100346.44;;;4.55;83.24
60089;BME280;45961;53.574;55.878;2023-04-07T05:15:20;100361.28;;;4.64;83.13
60089;BME280;45961;53.574;55.878;2023-04-07T05:16:24;100361.16;;;4.61;83.10
60089;BME280;45961;53.574;55.878;2023-04-07T05:17:25;100349.00;;;4.55;83.11
60089;BME280;45961;53.574;55.878;2023-04-07T05:18:32;100366.59;;;4.70;83.37
60089;BME280;45961;53.574;55.878;2023-04-07T05:19:34;100353.44;;;4.59;83.09
60089;BME280;45961;53.574;55.878;2023-04-07T05:20:43;100373.69;;;4.77;83.05
60089;BME280;45961;53.574;55.878;2023-04-07T05:21:45;100368.78;;;4.83;82.72
60089;BME280;45961;53.574;55.878;2023-04-07T05:22:46;100358.56;;;4.59;82.73
60089;BME280;45961;53.574;55.878;2023-04-07T05:23:48;100372.06;;;4.79;82.57
60089;BME280;45961;53.574;55.878;2023-04-07T05:24:49;100366.66;;;4.72;82.25
60089;BME280;45961;53.574;55.878;2023-04-07T05:25:51;100374.41;;;4.73;82.44
60089;BME280;45961;53.574;55.878;2023-04-07T05:26:53;100378.50;;;4.92;82.31
60089;BME280;45961;53.574;55.878;2023-04-07T05:27:54;100375.41;;;5.02;82.12
60089;BME280;45961;53.574;55.878;2023-04-07T05:28:55;100376.94;;;4.97;81.52
60089;BME280;45961;53.574;55.878;2023-04-07T05:29:58;100379.66;;;5.02;81.35
60089;BME280;45961;53.574;55.878;2023-04-07T05:31:04;100381.78;;;4.88;81.03
60089;BME280;45961;53.574;55.878;2023-04-07T05:32:06;100374.06;;;4.88;81.08
60089;BME280;45961;53.574;55.878;2023-04-07T05:33:07;100387.50;;;5.06;81.14
60089;BME280;45961;53.574;55.878;2023-04-07T05:34:22;100386.34;;;4.97;81.09
60089;BME280;45961;53.574;55.878;2023-04-07T05:35:27;100382.16;;;4.99;80.94
60089;BME280;45961;53.574;55.878;2023-04-07T05:36:30;100387.34;;;5.02;81.00
60089;BME280;45961;53.574;55.878;2023-04-07T05:37:32;100393.47;;;4.80;80.79
60089;BME280;45961;53.574;55.878;2023-04-07T05:38:36;100396.63;;;4.73;80.37
60089;BME280;45961;53.574;55.878;2023-04-07T05:39:43;100393.56;;;4.83;80.06
60089;BME280;45961;53.574;55.878;2023-04-07T05:40:48;100399.13;;;4.95;79.63
60089;BME280;45961;53.574;55.878;2023-04-07T05:41:57;100399.84;;;4.91;79.80